Aeroporto :
LOGIN :

Iscrizione | Disclaimer

   EN    FR    IT 

 










Sommario :    VFR   VFR Marginale   IFR   IFR Intensivo   IFR Molto Intensivo
Visibilità : 
Base nubi : 
>= 8 km
>= 3000ft
5 / 8 km
1000 / 3000 ft
1500m / 5 km
500 / 1000 ft
800 / 1500m
200 / 500 ft
< 800m
< 200 ft
Simboli :   Temporali  Nebbia  Neve Forte  Precipitazioni Forti  Vento > 20 kt
SIGMETs :   Varie  Temporali  Ghiacco  Turbolenza  Onda orograficha  Ceneri Vulcaniche







- Altitudine del aeroporto : 17 ft
- Codice IATA : GRQ


EHGG - Groningen Eelde

ULTIMO METAR :
  • 220725Z AUTO 21007KT 9999 NSC 18/13 Q1021 NOSIG

METARs OBSOLETI :
  • 220655Z AUTO 20008KT 9999 NSC 17/12 Q1021 NOSIG
  • 220625Z AUTO 21008KT 170V230 9999 FEW034 17/12 Q1021 NOSIG
  • 220555Z AUTO 20007KT 160V220 9999 NSC 17/11 Q1021 NOSIG
  • 220525Z AUTO 18005KT 140V210 9999 NSC 16/11 Q1021 NOSIG
  • 220455Z AUTO 18004KT 9999 NSC 14/11 Q1021 NOSIG

TAF TAF EHGG
Valido dal 22 a 06 ore il 23 a 12 ore UTC


220457Z 2206/2312 18006KT CAVOK
BECMG 2207/2209 24015KT
BECMG 2218/2220 20004KT
PROB30
TEMPO 2301/2306 6000
Nessun NOTAM noto per questo aeroporto.



MetMap, La meteo Aeronautica in un colpo d'occhio ! - Copyright ORBIFLY Dicembre 2007 - Disclaimer

ORBIFLY MET'MAP TEAM :

Programmazione e sviluppo : Alexandra Zaïnal
Concezione e sviluppo : Baudouin d'Aumeries
Co-Programmazione e sviluppo : Marc-Olivier Méhu
Supporto tecnico e logistico : Manuel Goepfert
Aiuto per la traduzione : Arnaldo La Scala

Contatto : metmap@orbifly.com




FONTI E CREDITI :

   NOAA